Terminal Aerodrome Forecast
Issued by NWS Melbourne, FL

Home | Current Version | Previous Version | Text Only | Print | Product List | Glossary On
Versions: 1 2 3 4 5 6 7 8 9 10 11 12 13 14 15 16 17 18 19 20 21 22 23 24 25 26 27 28 29 30
000
FTUS42 KMLB 021732
TAFMCO
TAF
KMCO 021732Z 0218/0318 06007KT P6SM SCT030
     FM030000 00000KT P6SM SKC
     FM030500 00000KT P6SM FEW002
      TEMPO 0306/0308 2SM BR BKN002
     FM030800 00000KT 1SM BR OVC002
      TEMPO 0310/0314 1/4SM FG VV001
     FM031500 05004KT P6SM SCT005
     FM031700 10008KT P6SM SCT030=

USA.gov is the U.S. government's official web portal to all federal, state and local government web resources and services.